sensor_id;sensor_type;location;lat;lon;timestamp;P1;P2;P0
46591;PMS6003;32314;48.748;9.656;2023-07-20T00:00:42;1.75;1.75;1.25
46591;PMS6003;32314;48.748;9.656;2023-07-20T00:03:28;2.00;2.00;1.75
46591;PMS6003;32314;48.748;9.656;2023-07-20T00:06:14;4.00;2.00;2.00
46591;PMS6003;32314;48.748;9.656;2023-07-20T00:09:00;2.00;2.00;2.00
46591;PMS6003;32314;48.748;9.656;2023-07-20T00:11:49;3.50;3.00;3.00
46591;PMS6003;32314;48.748;9.656;2023-07-20T00:14:38;2.00;2.00;2.00
46591;PMS6003;32314;48.748;9.656;2023-07-20T00:17:24;3.00;3.00;3.00
46591;PMS6003;32314;48.748;9.656;2023-07-20T00:20:10;4.00;3.00;2.75
46591;PMS6003;32314;48.748;9.656;2023-07-20T00:22:57;3.00;3.00;2.50
46591;PMS6003;32314;48.748;9.656;2023-07-20T00:25:43;3.00;3.00;3.00
46591;PMS6003;32314;48.748;9.656;2023-07-20T00:28:29;5.00;4.00;3.00
46591;PMS6003;32314;48.748;9.656;2023-07-20T00:31:15;4.75;3.00;3.00
46591;PMS6003;32314;48.748;9.656;2023-07-20T00:34:01;3.00;3.00;3.00
46591;PMS6003;32314;48.748;9.656;2023-07-20T00:36:46;3.00;3.00;2.25
46591;PMS6003;32314;48.748;9.656;2023-07-20T00:39:34;2.75;2.75;2.00
46591;PMS6003;32314;48.748;9.656;2023-07-20T00:42:20;2.25;2.25;2.25
46591;PMS6003;32314;48.748;9.656;2023-07-20T00:45:06;2.00;2.00;2.00
46591;PMS6003;32314;48.748;9.656;2023-07-20T00:47:52;2.50;2.50;2.25
46591;PMS6003;32314;48.748;9.656;2023-07-20T00:50:39;2.25;2.25;2.25
46591;PMS6003;32314;48.748;9.656;2023-07-20T00:53:25;2.00;2.00;1.50
46591;PMS6003;32314;48.748;9.656;2023-07-20T00:56:12;4.00;4.00;4.00
46591;PMS6003;32314;48.748;9.656;2023-07-20T00:58:58;4.25;2.25;2.25
46591;PMS6003;32314;48.748;9.656;2023-07-20T01:01:44;2.50;2.00;2.00
46591;PMS6003;32314;48.748;9.656;2023-07-20T01:04:30;3.00;3.00;2.00
46591;PMS6003;32314;48.748;9.656;2023-07-20T01:10:20;3.00;3.00;3.00
46591;PMS6003;32314;48.748;9.656;2023-07-20T01:13:11;4.00;3.00;3.00
46591;PMS6003;32314;48.748;9.656;2023-07-20T01:16:02;4.00;4.00;3.00
46591;PMS6003;32314;48.748;9.656;2023-07-20T01:18:48;4.00;4.00;3.75
46591;PMS6003;32314;48.748;9.656;2023-07-20T01:21:37;4.75;4.75;3.25
46591;PMS6003;32314;48.748;9.656;2023-07-20T01:30:59;3.50;3.50;3.00
46591;PMS6003;32314;48.748;9.656;2023-07-20T01:34:00;4.00;2.75;2.25
46591;PMS6003;32314;48.748;9.656;2023-07-20T01:36:47;3.50;3.50;3.25
46591;PMS6003;32314;48.748;9.656;2023-07-20T01:39:34;3.25;3.25;3.00
46591;PMS6003;32314;48.748;9.656;2023-07-20T01:42:24;3.50;3.50;2.75
46591;PMS6003;32314;48.748;9.656;2023-07-20T01:45:10;2.25;2.25;2.00
46591;PMS6003;32314;48.748;9.656;2023-07-20T01:47:56;3.75;3.75;3.00
46591;PMS6003;32314;48.748;9.656;2023-07-20T01:50:42;3.50;3.50;3.50
46591;PMS6003;32314;48.748;9.656;2023-07-20T01:53:28;3.00;2.50;2.25
46591;PMS6003;32314;48.748;9.656;2023-07-20T01:56:14;4.25;3.75;3.75
46591;PMS6003;32314;48.748;9.656;2023-07-20T01:58:59;2.75;2.75;2.25
46591;PMS6003;32314;48.748;9.656;2023-07-20T02:01:45;3.00;3.00;3.00
46591;PMS6003;32314;48.748;9.656;2023-07-20T02:04:31;3.25;3.25;3.00
46591;PMS6003;32314;48.748;9.656;2023-07-20T02:07:17;4.00;4.00;3.00
46591;PMS6003;32314;48.748;9.656;2023-07-20T02:10:04;4.75;3.50;3.25
46591;PMS6003;32314;48.748;9.656;2023-07-20T02:12:50;3.25;2.75;2.75
46591;PMS6003;32314;48.748;9.656;2023-07-20T02:15:36;4.00;4.00;3.00
46591;PMS6003;32314;48.748;9.656;2023-07-20T02:18:22;2.50;2.50;2.00
46591;PMS6003;32314;48.748;9.656;2023-07-20T02:21:07;2.50;2.50;2.00
46591;PMS6003;32314;48.748;9.656;2023-07-20T02:23:53;3.50;3.50;3.00
46591;PMS6003;32314;48.748;9.656;2023-07-20T02:26:39;3.00;3.00;3.00
46591;PMS6003;32314;48.748;9.656;2023-07-20T02:29:25;3.00;3.00;3.00
46591;PMS6003;32314;48.748;9.656;2023-07-20T02:32:11;4.00;2.50;2.00
46591;PMS6003;32314;48.748;9.656;2023-07-20T02:34:57;1.50;1.50;1.25
46591;PMS6003;32314;48.748;9.656;2023-07-20T02:37:43;1.00;1.00;1.00
46591;PMS6003;32314;48.748;9.656;2023-07-20T02:40:30;0.50;0.50;0.00
46591;PMS6003;32314;48.748;9.656;2023-07-20T02:43:16;0.00;0.00;0.00
46591;PMS6003;32314;48.748;9.656;2023-07-20T02:46:01;3.00;0.00;0.00
46591;PMS6003;32314;48.748;9.656;2023-07-20T02:48:47;0.75;0.75;0.00
46591;PMS6003;32314;48.748;9.656;2023-07-20T02:51:33;0.00;0.00;0.00
46591;PMS6003;32314;48.748;9.656;2023-07-20T02:54:19;0.75;0.75;0.00
46591;PMS6003;32314;48.748;9.656;2023-07-20T02:57:05;1.00;1.00;0.25
46591;PMS6003;32314;48.748;9.656;2023-07-20T02:59:50;1.00;1.00;1.00
46591;PMS6003;32314;48.748;9.656;2023-07-20T03:02:36;1.00;1.00;0.75
46591;PMS6003;32314;48.748;9.656;2023-07-20T03:05:22;0.50;0.50;0.00
46591;PMS6003;32314;48.748;9.656;2023-07-20T03:08:11;1.00;1.00;0.00
46591;PMS6003;32314;48.748;9.656;2023-07-20T03:10:57;0.50;0.50;0.00
46591;PMS6003;32314;48.748;9.656;2023-07-20T03:13:43;1.00;1.00;1.00
46591;PMS6003;32314;48.748;9.656;2023-07-20T03:16:30;0.50;0.50;0.00
46591;PMS6003;32314;48.748;9.656;2023-07-20T03:19:20;3.00;0.00;0.00
46591;PMS6003;32314;48.748;9.656;2023-07-20T03:22:06;0.75;0.75;0.75
46591;PMS6003;32314;48.748;9.656;2023-07-20T03:24:52;2.50;0.50;0.00
46591;PMS6003;32314;48.748;9.656;2023-07-20T03:27:38;4.00;4.00;3.00
46591;PMS6003;32314;48.748;9.656;2023-07-20T03:30:24;4.00;4.00;2.00
46591;PMS6003;32314;48.748;9.656;2023-07-20T03:33:11;0.50;0.50;0.50
46591;PMS6003;32314;48.748;9.656;2023-07-20T03:35:57;1.00;1.00;0.00
46591;PMS6003;32314;48.748;9.656;2023-07-20T03:38:50;0.00;0.00;0.00
46591;PMS6003;32314;48.748;9.656;2023-07-20T03:41:43;0.00;0.00;0.00
46591;PMS6003;32314;48.748;9.656;2023-07-20T03:44:29;1.00;1.00;1.00
46591;PMS6003;32314;48.748;9.656;2023-07-20T03:47:16;1.00;1.00;0.75
46591;PMS6003;32314;48.748;9.656;2023-07-20T03:50:01;0.75;0.75;0.00
46591;PMS6003;32314;48.748;9.656;2023-07-20T03:52:48;1.50;1.50;1.00
46591;PMS6003;32314;48.748;9.656;2023-07-20T03:55:34;0.00;0.00;0.00
46591;PMS6003;32314;48.748;9.656;2023-07-20T03:58:21;0.50;0.50;0.25
46591;PMS6003;32314;48.748;9.656;2023-07-20T04:01:07;0.25;0.25;0.00
46591;PMS6003;32314;48.748;9.656;2023-07-20T04:03:53;0.00;0.00;0.00
46591;PMS6003;32314;48.748;9.656;2023-07-20T04:06:39;1.00;1.00;1.00
46591;PMS6003;32314;48.748;9.656;2023-07-20T04:09:25;1.00;1.00;1.00
46591;PMS6003;32314;48.748;9.656;2023-07-20T04:12:10;1.00;1.00;1.00
46591;PMS6003;32314;48.748;9.656;2023-07-20T04:14:59;1.00;1.00;1.00
46591;PMS6003;32314;48.748;9.656;2023-07-20T04:17:47;2.00;2.00;1.50
46591;PMS6003;32314;48.748;9.656;2023-07-20T04:20:33;1.00;1.00;0.25
46591;PMS6003;32314;48.748;9.656;2023-07-20T04:23:19;1.00;1.00;1.00
46591;PMS6003;32314;48.748;9.656;2023-07-20T04:26:04;0.25;0.25;0.25
46591;PMS6003;32314;48.748;9.656;2023-07-20T04:28:52;0.75;0.75;0.00
46591;PMS6003;32314;48.748;9.656;2023-07-20T04:31:52;3.00;3.00;3.00
46591;PMS6003;32314;48.748;9.656;2023-07-20T04:34:38;1.00;1.00;1.00
46591;PMS6003;32314;48.748;9.656;2023-07-20T04:37:25;3.00;3.00;2.50
46591;PMS6003;32314;48.748;9.656;2023-07-20T04:40:11;1.00;1.00;1.00
46591;PMS6003;32314;48.748;9.656;2023-07-20T04:42:58;0.75;0.75;0.00
46591;PMS6003;32314;48.748;9.656;2023-07-20T04:45:44;1.00;1.00;0.75
46591;PMS6003;32314;48.748;9.656;2023-07-20T04:48:30;1.00;1.00;0.00
46591;PMS6003;32314;48.748;9.656;2023-07-20T04:51:16;0.00;0.00;0.00
46591;PMS6003;32314;48.748;9.656;2023-07-20T04:54:06;1.00;1.00;1.00
46591;PMS6003;32314;48.748;9.656;2023-07-20T04:56:55;2.50;2.50;1.00
46591;PMS6003;32314;48.748;9.656;2023-07-20T04:59:42;4.50;3.00;3.00
46591;PMS6003;32314;48.748;9.656;2023-07-20T05:02:28;1.00;1.00;1.00
46591;PMS6003;32314;48.748;9.656;2023-07-20T05:05:14;3.75;3.75;3.00
46591;PMS6003;32314;48.748;9.656;2023-07-20T05:08:04;4.25;4.00;3.50
46591;PMS6003;32314;48.748;9.656;2023-07-20T05:10:51;5.50;5.50;4.25
46591;PMS6003;32314;48.748;9.656;2023-07-20T05:13:37;1.00;1.00;1.00
46591;PMS6003;32314;48.748;9.656;2023-07-20T05:16:23;2.25;2.25;2.00
46591;PMS6003;32314;48.748;9.656;2023-07-20T05:19:09;1.00;1.00;1.00
46591;PMS6003;32314;48.748;9.656;2023-07-20T05:21:55;0.50;0.50;0.50
46591;PMS6003;32314;48.748;9.656;2023-07-20T05:24:42;1.00;1.00;1.00
46591;PMS6003;32314;48.748;9.656;2023-07-20T05:27:31;1.00;1.00;1.00
46591;PMS6003;32314;48.748;9.656;2023-07-20T05:30:16;1.00;1.00;0.25
46591;PMS6003;32314;48.748;9.656;2023-07-20T05:33:02;1.00;1.00;0.75
46591;PMS6003;32314;48.748;9.656;2023-07-20T05:35:51;1.25;1.25;1.00
46591;PMS6003;32314;48.748;9.656;2023-07-20T05:38:37;4.00;3.25;3.00
46591;PMS6003;32314;48.748;9.656;2023-07-20T05:41:23;4.75;3.75;3.00
46591;PMS6003;32314;48.748;9.656;2023-07-20T05:44:12;3.75;3.75;3.00
46591;PMS6003;32314;48.748;9.656;2023-07-20T05:46:58;3.00;3.00;3.00
46591;PMS6003;32314;48.748;9.656;2023-07-20T05:49:44;4.25;4.25;4.00
46591;PMS6003;32314;48.748;9.656;2023-07-20T05:52:30;3.00;3.00;3.00
46591;PMS6003;32314;48.748;9.656;2023-07-20T05:55:19;3.00;3.00;3.00
46591;PMS6003;32314;48.748;9.656;2023-07-20T05:58:04;4.00;4.00;3.75
46591;PMS6003;32314;48.748;9.656;2023-07-20T06:00:50;4.75;3.00;3.00
46591;PMS6003;32314;48.748;9.656;2023-07-20T06:03:36;4.00;4.00;3.25
46591;PMS6003;32314;48.748;9.656;2023-07-20T06:06:25;3.50;3.50;3.00
46591;PMS6003;32314;48.748;9.656;2023-07-20T06:09:13;2.25;2.25;2.25
46591;PMS6003;32314;48.748;9.656;2023-07-20T06:11:59;3.00;2.50;2.50
46591;PMS6003;32314;48.748;9.656;2023-07-20T06:14:45;3.00;3.00;3.00
46591;PMS6003;32314;48.748;9.656;2023-07-20T06:17:31;3.00;3.00;2.50
46591;PMS6003;32314;48.748;9.656;2023-07-20T06:20:21;4.00;2.75;2.00
46591;PMS6003;32314;48.748;9.656;2023-07-20T06:23:07;4.00;4.00;2.75
46591;PMS6003;32314;48.748;9.656;2023-07-20T06:25:53;2.50;2.50;2.50
46591;PMS6003;32314;48.748;9.656;2023-07-20T06:28:39;2.00;2.00;2.00
46591;PMS6003;32314;48.748;9.656;2023-07-20T06:31:25;4.00;4.00;3.25
46591;PMS6003;32314;48.748;9.656;2023-07-20T06:34:14;3.00;3.00;3.00
46591;PMS6003;32314;48.748;9.656;2023-07-20T06:37:03;2.75;2.75;2.75
46591;PMS6003;32314;48.748;9.656;2023-07-20T06:39:52;4.00;4.00;3.75
46591;PMS6003;32314;48.748;9.656;2023-07-20T06:42:37;3.00;3.00;3.00
46591;PMS6003;32314;48.748;9.656;2023-07-20T06:45:23;2.50;2.25;1.50
46591;PMS6003;32314;48.748;9.656;2023-07-20T06:48:09;4.00;2.00;2.00
46591;PMS6003;32314;48.748;9.656;2023-07-20T06:50:55;3.00;3.00;3.00
46591;PMS6003;32314;48.748;9.656;2023-07-20T06:53:41;2.75;2.50;2.00
46591;PMS6003;32314;48.748;9.656;2023-07-20T06:56:27;3.00;3.00;2.00
46591;PMS6003;32314;48.748;9.656;2023-07-20T06:59:12;2.50;2.50;2.50
46591;PMS6003;32314;48.748;9.656;2023-07-20T07:01:58;1.75;1.75;1.75
46591;PMS6003;32314;48.748;9.656;2023-07-20T07:04:45;4.50;3.50;2.75
46591;PMS6003;32314;48.748;9.656;2023-07-20T07:07:32;3.75;3.75;3.75
46591;PMS6003;32314;48.748;9.656;2023-07-20T07:10:18;1.75;1.75;1.75
46591;PMS6003;32314;48.748;9.656;2023-07-20T07:13:04;3.00;3.00;3.00
46591;PMS6003;32314;48.748;9.656;2023-07-20T07:15:49;2.25;2.25;2.00
46591;PMS6003;32314;48.748;9.656;2023-07-20T07:18:35;1.50;1.50;1.00
46591;PMS6003;32314;48.748;9.656;2023-07-20T07:21:21;4.00;2.00;2.00
46591;PMS6003;32314;48.748;9.656;2023-07-20T07:24:07;1.75;1.75;1.25
46591;PMS6003;32314;48.748;9.656;2023-07-20T07:26:53;2.25;2.25;2.00
46591;PMS6003;32314;48.748;9.656;2023-07-20T07:29:39;1.00;1.00;1.00
46591;PMS6003;32314;48.748;9.656;2023-07-20T07:32:24;2.00;2.00;1.50
46591;PMS6003;32314;48.748;9.656;2023-07-20T07:35:10;2.00;2.00;2.00
46591;PMS6003;32314;48.748;9.656;2023-07-20T07:37:57;3.00;3.00;1.75
46591;PMS6003;32314;48.748;9.656;2023-07-20T07:40:43;1.50;1.50;1.25
46591;PMS6003;32314;48.748;9.656;2023-07-20T07:43:28;2.00;2.00;2.00
46591;PMS6003;32314;48.748;9.656;2023-07-20T07:46:14;3.00;2.00;2.00
46591;PMS6003;32314;48.748;9.656;2023-07-20T07:49:00;3.00;3.00;3.00
46591;PMS6003;32314;48.748;9.656;2023-07-20T07:51:46;2.25;2.25;2.25
46591;PMS6003;32314;48.748;9.656;2023-07-20T07:54:31;2.00;2.00;1.75
46591;PMS6003;32314;48.748;9.656;2023-07-20T07:57:17;3.50;2.25;1.25
46591;PMS6003;32314;48.748;9.656;2023-07-20T08:00:03;2.50;2.25;2.00
46591;PMS6003;32314;48.748;9.656;2023-07-20T08:02:50;2.00;2.00;2.00
46591;PMS6003;32314;48.748;9.656;2023-07-20T08:05:36;2.75;2.75;2.50
46591;PMS6003;32314;48.748;9.656;2023-07-20T08:08:22;2.25;0.50;0.50
46591;PMS6003;32314;48.748;9.656;2023-07-20T08:11:08;3.25;2.00;2.00
46591;PMS6003;32314;48.748;9.656;2023-07-20T08:13:54;2.00;2.00;2.00
46591;PMS6003;32314;48.748;9.656;2023-07-20T08:16:40;3.00;3.00;3.00
46591;PMS6003;32314;48.748;9.656;2023-07-20T08:19:25;3.00;3.00;2.00
46591;PMS6003;32314;48.748;9.656;2023-07-20T08:22:11;3.25;2.75;2.50
46591;PMS6003;32314;48.748;9.656;2023-07-20T08:24:57;3.00;3.00;3.00
46591;PMS6003;32314;48.748;9.656;2023-07-20T08:27:43;1.50;1.50;1.25
46591;PMS6003;32314;48.748;9.656;2023-07-20T08:30:47;2.00;2.00;2.00
46591;PMS6003;32314;48.748;9.656;2023-07-20T08:33:34;1.75;1.75;1.25
46591;PMS6003;32314;48.748;9.656;2023-07-20T08:36:19;1.50;1.25;1.25
46591;PMS6003;32314;48.748;9.656;2023-07-20T08:39:05;1.25;1.25;1.25
46591;PMS6003;32314;48.748;9.656;2023-07-20T08:41:53;2.33;2.33;2.00
46591;PMS6003;32314;48.748;9.656;2023-07-20T08:44:41;1.67;1.67;1.67
46591;PMS6003;32314;48.748;9.656;2023-07-20T08:47:28;1.00;1.00;1.00
46591;PMS6003;32314;48.748;9.656;2023-07-20T08:50:14;2.00;1.33;1.33
46591;PMS6003;32314;48.748;9.656;2023-07-20T08:53:01;2.67;2.67;2.00
46591;PMS6003;32314;48.748;9.656;2023-07-20T08:55:48;3.00;3.00;2.00
46591;PMS6003;32314;48.748;9.656;2023-07-20T08:58:36;0.67;0.67;0.33
46591;PMS6003;32314;48.748;9.656;2023-07-20T09:01:22;3.00;2.00;1.67
46591;PMS6003;32314;48.748;9.656;2023-07-20T09:04:08;1.33;1.33;1.33
46591;PMS6003;32314;48.748;9.656;2023-07-20T09:06:54;3.00;2.33;1.67
46591;PMS6003;32314;48.748;9.656;2023-07-20T09:09:40;2.00;2.00;2.00
46591;PMS6003;32314;48.748;9.656;2023-07-20T09:12:27;2.67;1.67;1.00
46591;PMS6003;32314;48.748;9.656;2023-07-20T09:15:13;2.00;2.00;1.33
46591;PMS6003;32314;48.748;9.656;2023-07-20T09:18:01;1.00;1.00;1.00
46591;PMS6003;32314;48.748;9.656;2023-07-20T09:20:47;1.00;1.00;1.00
46591;PMS6003;32314;48.748;9.656;2023-07-20T09:23:33;1.00;1.00;0.67
46591;PMS6003;32314;48.748;9.656;2023-07-20T09:26:20;1.00;1.00;1.00
46591;PMS6003;32314;48.748;9.656;2023-07-20T09:29:07;1.67;1.67;1.00
46591;PMS6003;32314;48.748;9.656;2023-07-20T09:32:00;2.00;2.00;2.00
46591;PMS6003;32314;48.748;9.656;2023-07-20T09:34:49;2.00;2.00;2.00
46591;PMS6003;32314;48.748;9.656;2023-07-20T09:37:36;1.25;1.25;1.00
46591;PMS6003;32314;48.748;9.656;2023-07-20T09:40:22;1.75;0.75;0.00
46591;PMS6003;32314;48.748;9.656;2023-07-20T09:43:08;1.00;1.00;1.00
46591;PMS6003;32314;48.748;9.656;2023-07-20T09:45:57;1.00;1.00;1.00
46591;PMS6003;32314;48.748;9.656;2023-07-20T09:48:51;2.00;2.00;2.00
46591;PMS6003;32314;48.748;9.656;2023-07-20T09:51:40;1.00;1.00;1.00
46591;PMS6003;32314;48.748;9.656;2023-07-20T09:54:27;2.67;2.00;1.00
46591;PMS6003;32314;48.748;9.656;2023-07-20T09:57:14;1.67;1.67;1.00
46591;PMS6003;32314;48.748;9.656;2023-07-20T10:00:00;2.00;2.00;2.00
46591;PMS6003;32314;48.748;9.656;2023-07-20T10:02:46;2.33;2.33;2.33
46591;PMS6003;32314;48.748;9.656;2023-07-20T10:05:35;3.75;3.75;3.00
46591;PMS6003;32314;48.748;9.656;2023-07-20T10:08:26;3.00;3.00;2.67
46591;PMS6003;32314;48.748;9.656;2023-07-20T10:11:15;2.50;2.50;2.00
46591;PMS6003;32314;48.748;9.656;2023-07-20T10:14:03;0.33;0.33;0.33
46591;PMS6003;32314;48.748;9.656;2023-07-20T10:16:53;5.00;2.67;2.00
46591;PMS6003;32314;48.748;9.656;2023-07-20T10:19:44;3.00;3.00;2.00
46591;PMS6003;32314;48.748;9.656;2023-07-20T10:22:34;1.33;1.33;1.00
46591;PMS6003;32314;48.748;9.656;2023-07-20T10:25:22;1.67;1.67;1.33
46591;PMS6003;32314;48.748;9.656;2023-07-20T10:28:08;3.00;2.00;1.00
46591;PMS6003;32314;48.748;9.656;2023-07-20T10:30:55;1.67;1.67;1.33
46591;PMS6003;32314;48.748;9.656;2023-07-20T10:33:42;1.67;1.33;1.00
46591;PMS6003;32314;48.748;9.656;2023-07-20T10:36:28;2.00;2.00;2.00
46591;PMS6003;32314;48.748;9.656;2023-07-20T10:39:27;2.00;2.00;2.00
46591;PMS6003;32314;48.748;9.656;2023-07-20T10:42:16;1.33;1.33;1.33
46591;PMS6003;32314;48.748;9.656;2023-07-20T10:45:02;2.00;2.00;2.00
46591;PMS6003;32314;48.748;9.656;2023-07-20T10:47:48;4.00;2.00;2.00
46591;PMS6003;32314;48.748;9.656;2023-07-20T10:50:33;1.00;1.00;1.00
46591;PMS6003;32314;48.748;9.656;2023-07-20T10:53:20;2.00;2.00;2.00
46591;PMS6003;32314;48.748;9.656;2023-07-20T10:56:06;1.00;1.00;1.00
46591;PMS6003;32314;48.748;9.656;2023-07-20T10:58:59;1.67;1.67;1.33
46591;PMS6003;32314;48.748;9.656;2023-07-20T11:01:46;2.00;2.00;1.00
46591;PMS6003;32314;48.748;9.656;2023-07-20T11:07:36;1.67;1.67;1.33
46591;PMS6003;32314;48.748;9.656;2023-07-20T11:10:26;1.33;1.00;1.00
46591;PMS6003;32314;48.748;9.656;2023-07-20T11:16:03;1.67;1.67;1.00
46591;PMS6003;32314;48.748;9.656;2023-07-20T11:18:50;1.00;1.00;1.00
46591;PMS6003;32314;48.748;9.656;2023-07-20T11:21:37;1.00;1.00;1.00
46591;PMS6003;32314;48.748;9.656;2023-07-20T11:24:23;1.00;1.00;1.00
46591;PMS6003;32314;48.748;9.656;2023-07-20T11:27:09;2.25;2.25;2.00
46591;PMS6003;32314;48.748;9.656;2023-07-20T11:29:56;3.00;1.75;1.00
46591;PMS6003;32314;48.748;9.656;2023-07-20T11:32:47;3.00;1.75;1.75
46591;PMS6003;32314;48.748;9.656;2023-07-20T11:35:43;2.00;2.00;1.00
46591;PMS6003;32314;48.748;9.656;2023-07-20T11:38:30;0.75;0.75;0.75
46591;PMS6003;32314;48.748;9.656;2023-07-20T11:41:17;0.75;0.75;0.50
46591;PMS6003;32314;48.748;9.656;2023-07-20T11:44:03;0.75;0.75;0.50
46591;PMS6003;32314;48.748;9.656;2023-07-20T11:46:49;1.25;1.00;1.00
46591;PMS6003;32314;48.748;9.656;2023-07-20T11:49:35;1.67;1.67;1.00
46591;PMS6003;32314;48.748;9.656;2023-07-20T11:52:24;1.00;1.00;1.00
46591;PMS6003;32314;48.748;9.656;2023-07-20T11:55:10;3.00;0.00;0.00
46591;PMS6003;32314;48.748;9.656;2023-07-20T11:58:01;0.00;0.00;0.00
46591;PMS6003;32314;48.748;9.656;2023-07-20T12:00:50;2.50;0.75;0.50
46591;PMS6003;32314;48.748;9.656;2023-07-20T12:03:35;1.00;1.00;1.00
46591;PMS6003;32314;48.748;9.656;2023-07-20T12:06:25;1.00;1.00;1.00
46591;PMS6003;32314;48.748;9.656;2023-07-20T12:09:13;0.50;0.50;0.50
46591;PMS6003;32314;48.748;9.656;2023-07-20T12:12:00;1.00;1.00;0.75
46591;PMS6003;32314;48.748;9.656;2023-07-20T12:15:11;1.00;1.00;0.25
46591;PMS6003;32314;48.748;9.656;2023-07-20T12:18:01;0.25;0.25;0.00
46591;PMS6003;32314;48.748;9.656;2023-07-20T12:20:47;1.00;1.00;0.75
46591;PMS6003;32314;48.748;9.656;2023-07-20T12:23:40;0.00;0.00;0.00
46591;PMS6003;32314;48.748;9.656;2023-07-20T12:26:28;1.00;1.00;1.00
46591;PMS6003;32314;48.748;9.656;2023-07-20T12:29:14;0.00;0.00;0.00
46591;PMS6003;32314;48.748;9.656;2023-07-20T12:32:00;0.00;0.00;0.00
46591;PMS6003;32314;48.748;9.656;2023-07-20T12:34:46;0.00;0.00;0.00
46591;PMS6003;32314;48.748;9.656;2023-07-20T12:37:32;0.50;0.50;0.00
46591;PMS6003;32314;48.748;9.656;2023-07-20T12:40:18;0.25;0.25;0.00
46591;PMS6003;32314;48.748;9.656;2023-07-20T12:43:04;0.00;0.00;0.00
46591;PMS6003;32314;48.748;9.656;2023-07-20T12:45:50;1.00;1.00;1.00
46591;PMS6003;32314;48.748;9.656;2023-07-20T12:48:36;0.00;0.00;0.00
46591;PMS6003;32314;48.748;9.656;2023-07-20T12:51:26;0.25;0.25;0.00
46591;PMS6003;32314;48.748;9.656;2023-07-20T12:54:12;1.00;1.00;0.00
46591;PMS6003;32314;48.748;9.656;2023-07-20T12:56:58;0.00;0.00;0.00
46591;PMS6003;32314;48.748;9.656;2023-07-20T12:59:44;0.00;0.00;0.00
46591;PMS6003;32314;48.748;9.656;2023-07-20T13:02:30;1.00;1.00;1.00
46591;PMS6003;32314;48.748;9.656;2023-07-20T13:05:17;0.00;0.00;0.00
46591;PMS6003;32314;48.748;9.656;2023-07-20T13:08:03;0.00;0.00;0.00
46591;PMS6003;32314;48.748;9.656;2023-07-20T13:10:49;0.00;0.00;0.00
46591;PMS6003;32314;48.748;9.656;2023-07-20T13:13:35;0.25;0.25;0.25
46591;PMS6003;32314;48.748;9.656;2023-07-20T13:16:20;0.00;0.00;0.00
46591;PMS6003;32314;48.748;9.656;2023-07-20T13:19:09;1.00;1.00;1.00
46591;PMS6003;32314;48.748;9.656;2023-07-20T13:21:55;0.00;0.00;0.00
46591;PMS6003;32314;48.748;9.656;2023-07-20T13:24:44;0.00;0.00;0.00
46591;PMS6003;32314;48.748;9.656;2023-07-20T13:27:32;0.00;0.00;0.00
46591;PMS6003;32314;48.748;9.656;2023-07-20T13:30:18;2.00;0.00;0.00
46591;PMS6003;32314;48.748;9.656;2023-07-20T13:33:10;0.00;0.00;0.00
46591;PMS6003;32314;48.748;9.656;2023-07-20T13:35:56;0.00;0.00;0.00
46591;PMS6003;32314;48.748;9.656;2023-07-20T13:38:42;0.25;0.25;0.25
46591;PMS6003;32314;48.748;9.656;2023-07-20T13:41:27;3.00;0.00;0.00
46591;PMS6003;32314;48.748;9.656;2023-07-20T13:44:14;0.50;0.50;0.50
46591;PMS6003;32314;48.748;9.656;2023-07-20T13:47:00;0.00;0.00;0.00
46591;PMS6003;32314;48.748;9.656;2023-07-20T13:49:46;0.25;0.25;0.00
46591;PMS6003;32314;48.748;9.656;2023-07-20T13:52:40;0.50;0.50;0.25
46591;PMS6003;32314;48.748;9.656;2023-07-20T13:55:45;0.00;0.00;0.00
46591;PMS6003;32314;48.748;9.656;2023-07-20T13:58:33;0.00;0.00;0.00
46591;PMS6003;32314;48.748;9.656;2023-07-20T14:01:25;0.00;0.00;0.00
46591;PMS6003;32314;48.748;9.656;2023-07-20T14:04:16;0.00;0.00;0.00
46591;PMS6003;32314;48.748;9.656;2023-07-20T14:07:03;0.25;0.25;0.00
46591;PMS6003;32314;48.748;9.656;2023-07-20T14:09:51;0.00;0.00;0.00
46591;PMS6003;32314;48.748;9.656;2023-07-20T14:12:37;2.00;0.50;0.25
46591;PMS6003;32314;48.748;9.656;2023-07-20T14:15:35;0.50;0.50;0.50
46591;PMS6003;32314;48.748;9.656;2023-07-20T14:18:27;2.00;2.00;2.00
46591;PMS6003;32314;48.748;9.656;2023-07-20T14:21:13;0.00;0.00;0.00
46591;PMS6003;32314;48.748;9.656;2023-07-20T14:24:03;0.00;0.00;0.00
46591;PMS6003;32314;48.748;9.656;2023-07-20T14:26:49;1.00;1.00;0.00
46591;PMS6003;32314;48.748;9.656;2023-07-20T14:29:35;0.00;0.00;0.00
46591;PMS6003;32314;48.748;9.656;2023-07-20T14:32:21;2.00;1.00;1.00
46591;PMS6003;32314;48.748;9.656;2023-07-20T14:35:07;0.25;0.25;0.00
46591;PMS6003;32314;48.748;9.656;2023-07-20T14:37:54;1.00;1.00;1.00
46591;PMS6003;32314;48.748;9.656;2023-07-20T14:40:40;1.00;0.00;0.00
46591;PMS6003;32314;48.748;9.656;2023-07-20T14:43:26;0.00;0.00;0.00
46591;PMS6003;32314;48.748;9.656;2023-07-20T14:46:12;0.00;0.00;0.00
46591;PMS6003;32314;48.748;9.656;2023-07-20T14:48:58;1.00;1.00;1.00
46591;PMS6003;32314;48.748;9.656;2023-07-20T14:51:44;0.00;0.00;0.00
46591;PMS6003;32314;48.748;9.656;2023-07-20T14:54:32;0.00;0.00;0.00
46591;PMS6003;32314;48.748;9.656;2023-07-20T14:57:33;0.00;0.00;0.00
46591;PMS6003;32314;48.748;9.656;2023-07-20T15:00:19;0.00;0.00;0.00
46591;PMS6003;32314;48.748;9.656;2023-07-20T15:03:05;0.00;0.00;0.00
46591;PMS6003;32314;48.748;9.656;2023-07-20T15:05:51;0.00;0.00;0.00
46591;PMS6003;32314;48.748;9.656;2023-07-20T15:08:40;1.00;1.00;1.00
46591;PMS6003;32314;48.748;9.656;2023-07-20T15:11:26;0.00;0.00;0.00
46591;PMS6003;32314;48.748;9.656;2023-07-20T15:14:11;0.00;0.00;0.00
46591;PMS6003;32314;48.748;9.656;2023-07-20T15:17:00;1.50;1.50;1.00
46591;PMS6003;32314;48.748;9.656;2023-07-20T15:19:46;0.00;0.00;0.00
46591;PMS6003;32314;48.748;9.656;2023-07-20T15:22:35;0.75;0.75;0.75
46591;PMS6003;32314;48.748;9.656;2023-07-20T15:25:27;0.00;0.00;0.00
46591;PMS6003;32314;48.748;9.656;2023-07-20T15:28:15;0.25;0.25;0.00
46591;PMS6003;32314;48.748;9.656;2023-07-20T15:31:02;0.00;0.00;0.00
46591;PMS6003;32314;48.748;9.656;2023-07-20T15:33:48;0.00;0.00;0.00
46591;PMS6003;32314;48.748;9.656;2023-07-20T15:36:34;1.00;0.50;0.00
46591;PMS6003;32314;48.748;9.656;2023-07-20T15:39:23;0.25;0.25;0.25
46591;PMS6003;32314;48.748;9.656;2023-07-20T15:42:09;1.00;1.00;1.00
46591;PMS6003;32314;48.748;9.656;2023-07-20T15:44:57;1.00;1.00;0.25
46591;PMS6003;32314;48.748;9.656;2023-07-20T15:47:46;0.75;0.75;0.50
46591;PMS6003;32314;48.748;9.656;2023-07-20T15:50:39;0.00;0.00;0.00
46591;PMS6003;32314;48.748;9.656;2023-07-20T15:53:35;0.75;0.00;0.00
46591;PMS6003;32314;48.748;9.656;2023-07-20T15:56:24;0.00;0.00;0.00
46591;PMS6003;32314;48.748;9.656;2023-07-20T15:59:18;1.00;0.00;0.00
46591;PMS6003;32314;48.748;9.656;2023-07-20T16:02:09;0.00;0.00;0.00
46591;PMS6003;32314;48.748;9.656;2023-07-20T16:05:01;1.00;1.00;0.33
46591;PMS6003;32314;48.748;9.656;2023-07-20T16:07:52;0.67;0.67;0.00
46591;PMS6003;32314;48.748;9.656;2023-07-20T16:10:51;0.00;0.00;0.00
46591;PMS6003;32314;48.748;9.656;2023-07-20T16:13:38;0.00;0.00;0.00
46591;PMS6003;32314;48.748;9.656;2023-07-20T16:16:24;0.00;0.00;0.00
46591;PMS6003;32314;48.748;9.656;2023-07-20T16:19:10;0.00;0.00;0.00
46591;PMS6003;32314;48.748;9.656;2023-07-20T16:21:56;1.00;0.00;0.00
46591;PMS6003;32314;48.748;9.656;2023-07-20T16:24:42;0.33;0.33;0.33
46591;PMS6003;32314;48.748;9.656;2023-07-20T16:27:28;0.33;0.33;0.33
46591;PMS6003;32314;48.748;9.656;2023-07-20T16:30:14;0.67;0.67;0.00
46591;PMS6003;32314;48.748;9.656;2023-07-20T16:33:00;0.33;0.33;0.00
46591;PMS6003;32314;48.748;9.656;2023-07-20T16:35:46;0.67;0.67;0.33